createdAt,value
2022-08-05T00:00:16.238Z,101095.72
2022-08-05T00:02:43.916Z,101094.47
2022-08-05T00:06:01.798Z,101093.53
2022-08-05T00:08:06.334Z,101092.94
2022-08-05T00:10:52.540Z,101094.88
2022-08-05T00:13:19.790Z,101093.06
2022-08-05T00:15:55.851Z,101101.09
2022-08-05T00:18:25.287Z,101100.47
2022-08-05T00:20:52.404Z,101108.03
2022-08-05T00:23:44.406Z,101118.72
2022-08-05T00:26:08.120Z,101108.63
2022-08-05T00:28:35.684Z,101111.53
2022-08-05T00:31:04.439Z,101114.41
2022-08-05T00:34:54.815Z,101113.19
2022-08-05T00:37:09.801Z,101116.66
2022-08-05T00:39:06.192Z,101118.13
2022-08-05T00:41:52.129Z,101119.94
2022-08-05T00:44:30.706Z,101118.38
2022-08-05T00:47:02.968Z,101107.91
2022-08-05T00:49:32.778Z,101112.72
2022-08-05T00:52:13.525Z,101112.53
2022-08-05T00:54:40.323Z,101112.06
2022-08-05T00:57:09.985Z,101123.66
2022-08-05T00:59:44.605Z,101122.22
2022-08-05T01:02:12.236Z,101129.16
2022-08-05T01:04:42.107Z,101123.91
2022-08-05T01:07:13.723Z,101121.13
2022-08-05T01:09:56.363Z,101116.59
2022-08-05T01:12:25.232Z,101112.28
2022-08-05T01:15:05.372Z,101107.97
2022-08-05T01:17:53.746Z,101101.63
2022-08-05T01:20:34.662Z,101109.31
2022-08-05T01:23:25.691Z,101114.78
2022-08-05T01:26:34.113Z,101116.72
2022-08-05T01:29:08.850Z,101113.56
2022-08-05T01:31:52.766Z,101118.00
2022-08-05T01:34:30.869Z,101101.34
2022-08-05T01:37:44.359Z,101101.47
2022-08-05T01:40:12.911Z,101115.72
2022-08-05T01:42:42.859Z,101113.19
2022-08-05T01:45:10.796Z,101113.69
2022-08-05T01:47:43.325Z,101123.00
2022-08-05T01:50:17.501Z,101126.19
2022-08-05T01:52:49.930Z,101128.38
2022-08-05T01:55:20.085Z,101138.59
2022-08-05T01:58:12.769Z,101138.81
2022-08-05T02:00:39.804Z,101160.81
2022-08-05T02:03:24.157Z,101186.81
2022-08-05T02:05:59.805Z,101204.91
2022-08-05T02:08:31.578Z,101223.97
2022-08-05T02:11:11.723Z,101235.75
2022-08-05T02:14:02.875Z,101233.75
2022-08-05T02:16:39.937Z,101243.00
2022-08-05T02:19:17.775Z,101246.31
2022-08-05T02:21:51.417Z,101252.34
2022-08-05T02:24:22.966Z,101236.88
2022-08-05T02:26:56.570Z,101237.31
2022-08-05T02:29:58.443Z,101230.38
2022-08-05T02:32:19.917Z,101219.06
2022-08-05T02:34:59.116Z,101220.75
2022-08-05T02:37:32.076Z,101209.22
2022-08-05T02:39:59.664Z,101202.56
2022-08-05T02:42:27.597Z,101197.13
2022-08-05T02:45:00.298Z,101203.63
2022-08-05T02:47:58.573Z,101211.13
2022-08-05T02:50:19.176Z,101203.81
2022-08-05T02:52:46.892Z,101188.94
2022-08-05T02:55:14.480Z,101178.94
2022-08-05T02:58:11.474Z,101177.91
2022-08-05T03:00:34.773Z,101161.28
2022-08-05T03:03:10.199Z,101159.72
2022-08-05T03:06:57.245Z,101146.13
2022-08-05T03:08:29.617Z,101129.38
2022-08-05T03:11:01.071Z,101107.34
2022-08-05T03:13:51.581Z,101089.94
2022-08-05T03:16:29.456Z,101076.66
2022-08-05T03:18:58.090Z,101067.72
2022-08-05T03:21:24.644Z,101067.41
2022-08-05T03:23:56.931Z,101085.31
2022-08-05T03:26:31.342Z,101087.25
2022-08-05T03:28:59.482Z,101100.59
2022-08-05T03:31:55.652Z,101093.50
2022-08-05T03:34:14.791Z,101101.94
2022-08-05T03:36:41.429Z,101116.34
2022-08-05T03:39:20.106Z,101141.16
2022-08-05T03:41:53.482Z,101159.09
2022-08-05T03:44:23.547Z,101164.13
2022-08-05T03:46:52.107Z,101166.97
2022-08-05T03:49:19.199Z,101179.25
2022-08-05T03:52:48.707Z,101185.56
2022-08-05T03:55:52.265Z,101179.78
2022-08-05T03:57:42.393Z,101186.31
2022-08-05T04:00:16.028Z,101182.72
2022-08-05T04:02:57.578Z,101186.41
2022-08-05T04:05:33.288Z,101180.50
2022-08-05T04:08:03.695Z,101187.00
2022-08-05T04:10:37.947Z,101190.91
2022-08-05T04:13:08.048Z,101185.00
2022-08-05T04:15:36.479Z,101188.16
2022-08-05T04:18:07.385Z,101185.53
2022-08-05T04:20:37.533Z,101187.97
2022-08-05T04:23:04.300Z,101169.13
2022-08-05T04:25:57.853Z,101159.44
2022-08-05T04:28:30.640Z,101140.50
2022-08-05T04:31:01.107Z,101138.69
2022-08-05T04:34:18.438Z,101154.31
2022-08-05T04:36:21.354Z,101164.19
2022-08-05T04:39:02.321Z,101154.19
2022-08-05T04:41:36.850Z,101158.09
2022-08-05T04:44:09.642Z,101164.94
2022-08-05T04:46:37.655Z,101167.88
2022-08-05T04:49:05.611Z,101173.97
2022-08-05T04:51:39.074Z,101161.78
2022-08-05T04:54:05.696Z,101156.72
2022-08-05T04:56:37.218Z,101153.47
2022-08-05T04:59:21.607Z,101142.41
2022-08-05T05:02:08.338Z,101144.44
2022-08-05T05:04:38.495Z,101142.66
2022-08-05T05:07:11.693Z,101140.97
2022-08-05T05:09:42.525Z,101145.19
2022-08-05T05:12:11.617Z,101156.75
2022-08-05T05:14:38.294Z,101155.28
2022-08-05T05:17:21.195Z,101152.75
2022-08-05T05:19:50.271Z,101160.34
2022-08-05T05:22:23.991Z,101161.69
2022-08-05T05:24:56.822Z,101162.63
2022-08-05T05:27:44.254Z,101166.63
2022-08-05T05:30:30.593Z,101187.84
2022-08-05T05:33:08.944Z,101195.19
2022-08-05T05:35:43.192Z,101197.41
2022-08-05T05:38:13.374Z,101197.63
2022-08-05T05:40:50.068Z,101201.13
2022-08-05T05:43:54.151Z,101196.78
2022-08-05T05:46:17.372Z,101209.63
2022-08-05T05:48:48.186Z,101208.06
2022-08-05T05:51:27.895Z,101206.50
2022-08-05T05:53:59.523Z,101218.69
2022-08-05T05:56:32.825Z,101224.78
2022-08-05T05:59:07.640Z,101225.63
2022-08-05T06:01:37.506Z,101241.56
2022-08-05T06:04:12.062Z,101245.53
2022-08-05T06:06:47.570Z,101231.16
2022-08-05T06:09:25.596Z,101235.25
2022-08-05T06:12:03.237Z,101239.38
2022-08-05T06:14:31.260Z,101245.56
2022-08-05T06:16:58.429Z,101242.59
2022-08-05T06:19:34.647Z,101251.72
2022-08-05T06:22:04.002Z,101248.63
2022-08-05T06:24:31.463Z,101248.81
2022-08-05T06:26:58.201Z,101243.31
2022-08-05T06:29:46.411Z,101243.81
2022-08-05T06:32:20.828Z,101240.00
2022-08-05T06:34:53.434Z,101239.50
2022-08-05T06:37:56.996Z,101242.88
2022-08-05T06:40:09.989Z,101255.38
2022-08-05T06:42:37.558Z,101270.28
2022-08-05T06:45:08.699Z,101265.56
2022-08-05T06:48:36.080Z,101265.16
2022-08-05T06:50:22.654Z,101272.91
2022-08-05T06:52:58.690Z,101271.38
2022-08-05T06:55:31.402Z,101270.81
2022-08-05T06:58:20.184Z,101268.41
2022-08-05T07:00:49.869Z,101265.00
2022-08-05T07:03:17.556Z,101271.59
2022-08-05T07:05:53.213Z,101276.84
2022-08-05T07:08:23.669Z,101282.94
2022-08-05T07:10:54.965Z,101286.03
2022-08-05T07:13:59.420Z,101302.63
2022-08-05T07:18:00.086Z,101323.63
2022-08-05T07:22:27.678Z,101323.19
2022-08-05T07:25:23.056Z,101304.91
2022-08-05T07:27:58.123Z,101303.38
2022-08-05T07:30:39.066Z,101323.91
2022-08-05T07:33:16.169Z,101312.25
2022-08-05T07:36:03.319Z,101307.94
2022-08-05T07:38:34.981Z,101319.69
2022-08-05T07:42:07.354Z,101323.63
2022-08-05T07:43:59.740Z,101334.59
2022-08-05T07:46:28.234Z,101347.81
2022-08-05T07:49:02.440Z,101349.00
2022-08-05T07:51:37.518Z,101356.50
2022-08-05T07:54:09.667Z,101353.66
2022-08-05T07:57:00.286Z,101363.81
2022-08-05T07:59:38.148Z,101372.34
2022-08-05T08:02:16.041Z,101371.84
2022-08-05T08:04:49.396Z,101380.38
2022-08-05T08:07:22.925Z,101369.38
2022-08-05T08:09:52.527Z,101372.38
2022-08-05T08:12:35.259Z,101363.09
2022-08-05T08:15:05.255Z,101381.66
2022-08-05T08:17:40.410Z,101384.56
2022-08-05T08:20:43.454Z,101382.13
2022-08-05T08:23:03.414Z,101390.09
2022-08-05T08:26:00.653Z,101390.03
2022-08-05T08:28:18.748Z,101395.81
2022-08-05T08:31:02.503Z,101394.34
2022-08-05T08:33:36.064Z,101413.72
2022-08-05T08:36:37.625Z,101409.16
2022-08-05T08:38:55.445Z,101410.09
2022-08-05T08:41:26.194Z,101419.91
2022-08-05T08:45:16.986Z,101421.22
2022-08-05T08:47:02.635Z,101427.75
2022-08-05T08:50:14.663Z,101424.50
2022-08-05T08:52:39.850Z,101429.13
2022-08-05T08:55:13.171Z,101430.97
2022-08-05T08:57:48.259Z,101422.34
2022-08-05T09:00:24.979Z,101424.50
2022-08-05T09:02:53.429Z,101420.59
2022-08-05T09:05:38.684Z,101417.22
2022-08-05T09:08:09.691Z,101413.66
2022-08-05T09:10:36.670Z,101420.50
2022-08-05T09:13:07.011Z,101425.63
2022-08-05T09:15:36.801Z,101431.84
2022-08-05T09:18:06.472Z,101444.50
2022-08-05T09:20:37.792Z,101445.16
2022-08-05T09:26:58.694Z,101458.78
2022-08-05T09:29:47.997Z,101455.22
2022-08-05T09:32:40.352Z,101465.50
2022-08-05T09:35:12.847Z,101473.13
2022-08-05T09:38:12.808Z,101482.59
2022-08-05T09:46:36.870Z,101490.94
2022-08-05T09:49:18.654Z,101485.97
2022-08-05T09:51:50.226Z,101490.25
2022-08-05T09:54:21.170Z,101497.09
2022-08-05T09:57:04.611Z,101497.22
2022-08-05T09:59:57.396Z,101502.28
2022-08-05T10:02:38.781Z,101516.13
2022-08-05T10:05:16.030Z,101518.00
2022-08-05T10:08:34.893Z,101520.00
2022-08-05T10:10:48.305Z,101525.59
2022-08-05T10:13:49.716Z,101519.03
2022-08-05T10:16:52.857Z,101536.84
2022-08-05T10:19:23.586Z,101529.69
2022-08-05T10:21:59.066Z,101541.94
2022-08-05T10:24:27.155Z,101528.81
2022-08-05T10:27:01.987Z,101535.03
2022-08-05T10:30:06.300Z,101532.25
2022-08-05T10:32:55.702Z,101532.97
2022-08-05T10:35:10.410Z,101538.63
2022-08-05T10:45:41.780Z,101547.94
2022-08-05T10:48:36.022Z,101555.34
2022-08-05T10:51:22.074Z,101555.75
2022-08-05T10:53:51.891Z,101551.13
2022-08-05T10:56:26.049Z,101562.94
2022-08-05T10:58:55.557Z,101560.38
2022-08-05T11:01:55.145Z,101556.81
2022-08-05T11:04:17.611Z,101554.00
2022-08-05T11:07:01.411Z,101553.31
2022-08-05T11:09:46.230Z,101556.59
2022-08-05T11:12:42.418Z,101547.41
2022-08-05T11:15:59.130Z,101552.13
2022-08-05T11:18:30.264Z,101556.22
2022-08-05T11:21:00.141Z,101552.34
2022-08-05T11:23:33.771Z,101554.25
2022-08-05T11:26:28.526Z,101553.50
2022-08-05T11:29:06.697Z,101564.31
2022-08-05T11:31:56.361Z,101559.41
2022-08-05T11:34:51.739Z,101566.59
2022-08-05T11:38:29.746Z,101564.47
2022-08-05T11:41:34.170Z,101562.22
2022-08-05T11:44:04.842Z,101567.97
2022-08-05T11:54:04.028Z,101574.44
2022-08-05T11:56:52.245Z,101578.78
2022-08-05T11:59:26.981Z,101574.94
2022-08-05T12:01:57.301Z,101574.94
2022-08-05T12:04:25.507Z,101577.09
2022-08-05T12:06:54.135Z,101570.38
2022-08-05T12:09:38.489Z,101572.13
2022-08-05T12:12:14.226Z,101566.72
2022-08-05T12:14:43.364Z,101575.88
2022-08-05T12:17:57.891Z,101574.94
2022-08-05T12:20:17.042Z,101580.97
2022-08-05T12:22:49.010Z,101574.91
2022-08-05T12:25:18.521Z,101565.44
2022-08-05T12:27:53.401Z,101573.41
2022-08-05T12:30:22.451Z,101577.00
2022-08-05T12:33:07.474Z,101579.28
2022-08-05T12:35:45.642Z,101585.63
2022-08-05T12:38:15.151Z,101594.09
2022-08-05T12:40:43.507Z,101592.03
2022-08-05T12:43:10.730Z,101596.22
2022-08-05T12:45:49.565Z,101599.78
2022-08-05T12:48:27.381Z,101607.91
2022-08-05T12:51:21.675Z,101614.59
2022-08-05T12:54:04.559Z,101610.13
2022-08-05T12:56:45.147Z,101615.00
2022-08-05T12:59:13.842Z,101625.97
2022-08-05T13:02:05.920Z,101631.44
2022-08-05T13:04:41.629Z,101629.59
2022-08-05T13:07:57.608Z,101630.59
2022-08-05T13:10:19.602Z,101633.56
2022-08-05T13:12:57.742Z,101639.56
2022-08-05T13:15:41.941Z,101638.94
2022-08-05T13:18:20.960Z,101646.13
2022-08-05T13:20:49.856Z,101644.22
2022-08-05T13:23:22.056Z,101644.13
2022-08-05T13:25:52.093Z,101651.22
2022-08-05T13:28:27.365Z,101650.13
2022-08-05T13:30:54.170Z,101657.22
2022-08-05T13:34:23.298Z,101653.66
2022-08-05T13:36:09.153Z,101666.00
2022-08-05T13:38:38.490Z,101665.91
2022-08-05T13:41:09.674Z,101667.19
2022-08-05T13:43:43.963Z,101668.38
2022-08-05T13:46:30.690Z,101671.94
2022-08-05T13:49:10.502Z,101676.06
2022-08-05T13:51:41.239Z,101674.69
2022-08-05T13:54:15.079Z,101676.94
2022-08-05T13:56:45.128Z,101679.25
2022-08-05T13:59:21.287Z,101671.38
2022-08-05T14:01:58.414Z,101681.78
2022-08-05T14:04:50.021Z,101682.88
2022-08-05T14:07:25.728Z,101673.53
2022-08-05T14:10:28.392Z,101673.25
2022-08-05T14:12:57.105Z,101665.31
2022-08-05T14:16:07.314Z,101671.13
2022-08-05T14:18:14.885Z,101673.66
2022-08-05T14:20:48.353Z,101676.16
2022-08-05T14:23:23.462Z,101672.50
2022-08-05T14:25:54.295Z,101680.69
2022-08-05T14:28:27.014Z,101680.09
2022-08-05T14:30:55.034Z,101682.41
2022-08-05T14:33:22.619Z,101685.91
2022-08-05T14:35:51.745Z,101691.31
2022-08-05T14:38:32.655Z,101691.03
2022-08-05T14:41:05.579Z,101687.59
2022-08-05T14:44:00.284Z,101681.53
2022-08-05T14:46:20.573Z,101679.56
2022-08-05T14:48:49.967Z,101680.41
2022-08-05T14:51:17.594Z,101684.22
2022-08-05T14:53:46.218Z,101681.59
2022-08-05T14:56:32.876Z,101690.69
2022-08-05T14:58:59.594Z,101677.22
2022-08-05T15:01:48.144Z,101690.22
2022-08-05T15:04:15.153Z,101696.34
2022-08-05T15:06:41.740Z,101694.56
2022-08-05T15:09:15.897Z,101699.78
2022-08-05T15:11:52.642Z,101696.88
2022-08-05T15:14:34.750Z,101698.81
2022-08-05T15:17:09.663Z,101700.22
2022-08-05T15:19:41.251Z,101697.59
2022-08-05T15:22:16.126Z,101696.78
2022-08-05T15:24:44.249Z,101700.22
2022-08-05T15:27:11.503Z,101711.66
2022-08-05T15:29:41.802Z,101712.00
2022-08-05T15:32:08.981Z,101708.72
2022-08-05T15:34:35.679Z,101709.22
2022-08-05T15:37:15.633Z,101704.25
2022-08-05T15:40:59.776Z,101719.41
2022-08-05T15:42:55.733Z,101721.78
2022-08-05T15:45:38.528Z,101717.19
2022-08-05T15:48:05.824Z,101709.72
2022-08-05T15:50:33.860Z,101708.59
2022-08-05T15:53:05.174Z,101711.91
2022-08-05T15:56:01.983Z,101705.91
2022-08-05T15:58:19.534Z,101719.50
2022-08-05T16:00:50.475Z,101722.28
2022-08-05T16:03:32.591Z,101728.53
2022-08-05T16:06:00.475Z,101720.84
2022-08-05T16:08:30.413Z,101722.78
2022-08-05T16:10:57.758Z,101736.03
2022-08-05T16:13:24.353Z,101739.38
2022-08-05T16:16:01.129Z,101740.34
2022-08-05T16:18:30.385Z,101738.66
2022-08-05T16:20:57.536Z,101728.06
2022-08-05T16:23:24.277Z,101730.00
2022-08-05T16:25:55.904Z,101737.81
2022-08-05T16:28:24.254Z,101730.47
2022-08-05T16:30:52.153Z,101733.78
2022-08-05T16:33:19.457Z,101733.69
2022-08-05T16:35:49.910Z,101727.78
2022-08-05T16:38:25.402Z,101739.31
2022-08-05T16:41:00.783Z,101741.72
2022-08-05T16:43:33.045Z,101756.28
2022-08-05T16:46:07.209Z,101751.91
2022-08-05T16:48:39.702Z,101753.31
2022-08-05T16:51:09.976Z,101762.66
2022-08-05T16:54:06.050Z,101765.41
2022-08-05T16:56:29.778Z,101770.47
2022-08-05T16:58:57.950Z,101763.72
2022-08-05T17:01:24.796Z,101777.25
2022-08-05T17:03:52.005Z,101771.13
2022-08-05T17:06:19.130Z,101781.38
2022-08-05T17:08:53.645Z,101787.41
2022-08-05T17:11:25.407Z,101783.06
2022-08-05T17:14:00.211Z,101788.13
2022-08-05T17:16:36.389Z,101787.41
2022-08-05T17:19:07.060Z,101791.00
2022-08-05T17:21:36.099Z,101796.41
2022-08-05T17:24:30.248Z,101799.97
2022-08-05T17:26:56.338Z,101804.13
2022-08-05T17:29:33.564Z,101799.91
2022-08-05T17:32:08.388Z,101810.69
2022-08-05T17:34:35.221Z,101811.44
2022-08-05T17:37:02.037Z,101806.06
2022-08-05T17:39:33.516Z,101820.34
2022-08-05T17:42:18.278Z,101822.09
2022-08-05T17:44:51.049Z,101823.00
2022-08-05T17:47:22.226Z,101831.78
2022-08-05T17:49:59.715Z,101824.28
2022-08-05T17:52:32.430Z,101825.84
2022-08-05T17:54:59.953Z,101832.63
2022-08-05T17:57:27.766Z,101832.13
2022-08-05T18:00:05.159Z,101839.94
2022-08-05T18:02:32.967Z,101844.38
2022-08-05T18:05:06.212Z,101845.94
2022-08-05T18:07:41.503Z,101849.22
2022-08-05T18:10:11.180Z,101852.81
2022-08-05T18:12:38.530Z,101861.03
2022-08-05T18:15:06.218Z,101859.56
2022-08-05T18:18:00.631Z,101868.06
2022-08-05T18:20:29.198Z,101863.09
2022-08-05T18:23:00.693Z,101866.38
2022-08-05T18:25:39.429Z,101875.03
2022-08-05T18:28:07.350Z,101883.91
2022-08-05T18:30:38.894Z,101883.72
2022-08-05T18:33:06.266Z,101885.28
2022-08-05T18:36:00.553Z,101884.66
2022-08-05T18:38:25.893Z,101894.00
2022-08-05T18:41:56.033Z,101893.66
2022-08-05T18:43:42.823Z,101899.03
2022-08-05T18:46:15.169Z,101906.53
2022-08-05T18:48:42.138Z,101908.59
2022-08-05T18:52:05.611Z,101912.41
2022-08-05T18:54:14.803Z,101900.09
2022-08-05T18:56:50.837Z,101911.59
2022-08-05T18:59:43.923Z,101915.25
2022-08-05T19:02:11.472Z,101912.84
2022-08-05T19:05:01.542Z,101920.94
2022-08-05T19:07:46.321Z,101923.03
2022-08-05T19:10:17.213Z,101927.53
2022-08-05T19:12:44.057Z,101935.66
2022-08-05T19:15:54.672Z,101938.50
2022-08-05T19:18:10.356Z,101935.44
2022-08-05T19:20:41.608Z,101943.56
2022-08-05T19:24:04.461Z,101950.03
2022-08-05T19:26:01.082Z,101955.69
2022-08-05T19:28:29.834Z,101963.13
2022-08-05T19:30:57.947Z,101964.81
2022-08-05T19:33:36.044Z,101960.09
2022-08-05T19:36:06.853Z,101965.94
2022-08-05T19:38:35.587Z,101969.28
2022-08-05T19:41:07.413Z,101985.53
2022-08-05T19:44:06.984Z,101991.38
2022-08-05T19:46:29.791Z,101989.91
2022-08-05T19:49:02.844Z,102000.53
2022-08-05T19:52:08.924Z,102007.13
2022-08-05T19:54:26.761Z,102019.75
2022-08-05T19:57:02.502Z,102021.59
2022-08-05T19:59:55.109Z,102031.44
2022-08-05T20:02:20.674Z,102029.91
2022-08-05T20:04:48.385Z,102031.97
2022-08-05T20:07:15.648Z,102034.66
2022-08-05T20:10:04.935Z,102040.22
2022-08-05T20:12:40.027Z,102036.88
2022-08-05T20:15:15.977Z,102040.47
2022-08-05T20:18:04.384Z,102041.50
2022-08-05T20:20:38.016Z,102055.63
2022-08-05T20:23:05.346Z,102065.25
2022-08-05T20:25:33.914Z,102057.59
2022-08-05T20:28:08.176Z,102063.00
2022-08-05T20:30:40.434Z,102072.69
2022-08-05T20:33:08.810Z,102063.19
2022-08-05T20:35:40.597Z,102066.75
2022-08-05T20:38:20.115Z,102075.75
2022-08-05T20:40:53.368Z,102079.31
2022-08-05T20:43:33.376Z,102081.28
2022-08-05T20:46:10.239Z,102078.97
2022-08-05T20:48:39.162Z,102090.66
2022-08-05T20:51:08.795Z,102097.06
2022-08-05T20:53:36.905Z,102096.16
2022-08-05T20:56:09.714Z,102093.69
2022-08-05T20:58:36.937Z,102093.69
2022-08-05T21:01:06.304Z,102100.81
2022-08-05T21:03:34.186Z,102100.97
2022-08-05T21:06:01.853Z,102099.41
2022-08-05T21:08:35.835Z,102102.84
2022-08-05T21:11:13.002Z,102100.72
2022-08-05T21:13:59.397Z,102108.69
2022-08-05T21:16:29.326Z,102110.88
2022-08-05T21:18:56.959Z,102113.72
2022-08-05T21:21:26.821Z,102115.75
2022-08-05T21:24:07.340Z,102118.78
2022-08-05T21:26:33.974Z,102119.63
2022-08-05T21:29:03.751Z,102122.28
2022-08-05T21:31:41.176Z,102126.03
2022-08-05T21:34:10.640Z,102120.34
2022-08-05T21:36:38.621Z,102126.63
2022-08-05T21:39:05.455Z,102128.78
2022-08-05T21:41:35.614Z,102136.13
2022-08-05T21:44:04.786Z,102134.50
2022-08-05T21:46:34.584Z,102133.88
2022-08-05T21:49:07.426Z,102136.69
2022-08-05T21:52:21.394Z,102138.56
2022-08-05T21:54:28.139Z,102132.75
2022-08-05T21:57:29.284Z,102140.53
2022-08-05T22:00:02.023Z,102148.59
2022-08-05T22:02:30.750Z,102148.66
2022-08-05T22:04:58.731Z,102151.50
2022-08-05T22:07:40.329Z,102148.16
2022-08-05T22:10:13.519Z,102154.44
2022-08-05T22:12:44.877Z,102149.47
2022-08-05T22:16:00.569Z,102154.09
2022-08-05T22:18:06.487Z,102152.25
2022-08-05T22:20:35.727Z,102161.91
2022-08-05T22:23:24.756Z,102160.41
2022-08-05T22:26:30.300Z,102168.69
2022-08-05T22:28:56.951Z,102172.25
2022-08-05T22:31:29.960Z,102177.63
2022-08-05T22:34:01.075Z,102173.31
2022-08-05T22:36:28.246Z,102174.50
2022-08-05T22:38:55.981Z,102167.78
2022-08-05T22:42:05.577Z,102172.94
2022-08-05T22:44:12.128Z,102178.19
2022-08-05T22:46:40.632Z,102175.63
2022-08-05T22:49:12.514Z,102184.28
2022-08-05T22:52:04.875Z,102185.13
2022-08-05T22:54:35.497Z,102189.75
2022-08-05T22:57:02.875Z,102186.31
2022-08-05T22:59:45.218Z,102192.63
2022-08-05T23:02:16.856Z,102185.81
2022-08-05T23:04:51.539Z,102187.50
2022-08-05T23:07:19.187Z,102198.81
2022-08-05T23:09:58.230Z,102206.78
2022-08-05T23:12:32.806Z,102206.03
2022-08-05T23:15:03.342Z,102209.75
2022-08-05T23:17:34.349Z,102215.16
2022-08-05T23:20:10.212Z,102217.09
2022-08-05T23:22:47.087Z,102223.97
2022-08-05T23:25:17.063Z,102228.44
2022-08-05T23:27:58.015Z,102229.13
2022-08-05T23:30:29.134Z,102226.34
2022-08-05T23:32:57.950Z,102235.25
2022-08-05T23:35:25.538Z,102232.09
2022-08-05T23:37:55.736Z,102232.16
2022-08-05T23:40:27.139Z,102230.47
2022-08-05T23:42:54.129Z,102228.84
2022-08-05T23:45:23.826Z,102232.34
2022-08-05T23:47:53.817Z,102241.28
2022-08-05T23:50:26.526Z,102243.38
2022-08-05T23:52:54.658Z,102243.63
2022-08-05T23:55:22.487Z,102238.50
2022-08-05T23:57:57.379Z,102249.78
